Location Sebastian, FL, US

ob KFLSEBAS1 282240Z AUTO 10000G09KT  -RA -RA 28/25 A3005 RMK SLPNO 

2017.06.28 2240 UTC
Wind from the E (99 degrees) at Calm MPH ( KT) gusting to 10.0 MPH (9 KT)
Visibility    Mile(s)
Weather: LIGHT RAIN
Temperature 82.30 F (28 C)
Dew Point 77.70 F (25 C)
Relative Humidity 86%
Pressure   30.05 in. Hg (1018 hPa)
Rain  0.00 in.
Daily Rain  in.

Station Name  www.kflsebas1.com
Longitude, Latitude  -80.48, 27.8
Elevation 23
Station URL www.kflsebas1.com
Software Type VWS V15.00